Time;durP1;ratioP1;P1;durP2;ratioP2;P2;SDS_P1;SDS_P2;PMS_P1;PMS_P2;Temp;Humidity;BMP_temperature;BMP_pressure;BME280_temperature;BME280_humidity;BME280_pressure;Samples;Min_cycle;Max_cycle;Signal;HPM_P1;HPM_P2
2023/09/26 00:01:30;;;;;;;11.48;4.80;;;21.40;67.10;;;;;;5080919;28;20032;-54
2023/09/26 00:03:56;;;;;;;7.93;4.20;;;21.40;67.40;;;;;;5077249;28;20039;-55
2023/09/26 00:06:23;;;;;;;7.28;4.28;;;21.40;66.80;;;;;;5084668;28;20403;-56
2023/09/26 00:08:52;;;;;;;6.68;4.22;;;21.40;67.50;;;;;;5081021;28;20024;-54
2023/09/26 00:11:19;;;;;;;9.05;4.25;;;21.40;67.50;;;;;;5078187;28;20028;-56
2023/09/26 00:13:47;;;;;;;8.40;4.55;;;21.40;67.30;;;;;;5080381;28;20024;-53
2023/09/26 00:16:12;;;;;;;7.05;4.15;;;21.40;67.40;;;;;;5085870;28;20495;-56
2023/09/26 00:18:40;;;;;;;6.72;4.25;;;21.40;67.50;;;;;;5080639;28;20103;-52
2023/09/26 00:21:12;;;;;;;9.23;4.55;;;21.40;67.40;;;;;;5085635;28;20024;-55
2023/09/26 00:23:38;;;;;;;10.30;4.70;;;21.40;67.50;;;;;;5080134;28;20440;-55
2023/09/26 00:26:07;;;;;;;15.10;5.13;;;21.40;67.40;;;;;;5092193;28;20070;-54
2023/09/26 00:28:33;;;;;;;11.67;5.10;;;21.40;67.20;;;;;;5094788;28;20024;-51
2023/09/26 00:31:06;;;;;;;14.02;5.25;;;21.40;67.20;;;;;;5091858;28;20028;-54
2023/09/26 00:33:32;;;;;;;12.73;5.03;;;21.50;67.40;;;;;;5094218;28;20047;-51
2023/09/26 00:36:06;;;;;;;12.45;5.30;;;21.50;67.50;;;;;;5094384;28;20052;-55
2023/09/26 00:38:32;;;;;;;10.27;5.10;;;21.40;67.20;;;;;;5094687;28;20089;-54
2023/09/26 00:40:58;;;;;;;11.30;4.70;;;21.50;67.40;;;;;;5093407;28;20107;-49
2023/09/26 00:43:24;;;;;;;17.65;6.68;;;21.40;67.30;;;;;;5092909;28;20577;-54
2023/09/26 00:45:56;;;;;;;15.88;6.25;;;21.50;67.50;;;;;;5094409;28;20020;-56
2023/09/26 00:48:25;;;;;;;17.40;6.50;;;21.50;67.40;;;;;;5094507;28;20032;-50
2023/09/26 00:50:55;;;;;;;19.35;6.05;;;21.40;67.30;;;;;;5094213;28;20039;-55
2023/09/26 00:53:23;;;;;;;21.20;6.60;;;21.50;67.40;;;;;;5093004;28;20028;-55
2023/09/26 00:55:50;;;;;;;20.00;6.65;;;21.50;67.50;;;;;;5094389;28;20035;-56
2023/09/26 00:58:18;;;;;;;18.15;7.10;;;21.50;67.40;;;;;;5094228;28;20111;-55
2023/09/26 01:00:50;;;;;;;17.63;7.20;;;21.50;67.50;;;;;;5093021;28;20032;-53
2023/09/26 01:03:16;;;;;;;18.58;6.68;;;21.50;67.50;;;;;;5092541;28;20107;-54
2023/09/26 01:05:42;;;;;;;19.20;6.55;;;21.50;67.60;;;;;;5094061;28;20502;-56
2023/09/26 01:08:09;;;;;;;23.70;7.55;;;21.50;67.50;;;;;;5094019;28;20035;-55
2023/09/26 01:10:36;;;;;;;17.83;7.68;;;21.40;67.50;;;;;;5092844;28;20024;-54
2023/09/26 01:13:03;;;;;;;18.50;6.57;;;21.40;67.50;;;;;;5093720;28;20039;-56
2023/09/26 01:15:31;;;;;;;20.95;7.50;;;21.40;67.50;;;;;;5094055;28;20020;-55
2023/09/26 01:17:57;;;;;;;18.42;6.60;;;21.40;67.60;;;;;;5093636;28;20028;-53
2023/09/26 01:20:24;;;;;;;26.27;7.60;;;21.40;67.50;;;;;;5093844;28;20074;-56
2023/09/26 01:22:52;;;;;;;19.15;6.57;;;21.40;67.50;;;;;;5092172;28;20028;-53
2023/09/26 01:25:18;;;;;;;24.27;6.93;;;21.40;67.40;;;;;;5093575;28;20020;-54
2023/09/26 01:27:44;;;;;;;21.15;7.32;;;21.40;67.60;;;;;;5092419;28;20102;-56
2023/09/26 01:30:11;;;;;;;18.60;7.40;;;21.40;67.60;;;;;;5093619;28;20020;-53
2023/09/26 01:32:37;;;;;;;20.02;6.97;;;21.40;67.60;;;;;;5093534;28;20030;-56
2023/09/26 01:35:04;;;;;;;19.08;7.40;;;21.40;67.60;;;;;;5098054;22;20028;31
2023/09/26 01:37:30;;;;;;;20.08;7.43;;;21.40;67.70;;;;;;4989244;28;20077;-54
2023/09/26 01:39:56;;;;;;;18.15;7.20;;;21.40;67.60;;;;;;4993733;28;20054;-53
2023/09/26 01:42:22;;;;;;;19.98;6.88;;;21.40;67.60;;;;;;4976493;28;20065;-52
2023/09/26 01:44:48;;;;;;;18.38;7.43;;;21.40;67.70;;;;;;4976110;28;20022;-51
2023/09/26 01:47:29;;;;;;;24.05;8.27;;;21.40;67.70;;;;;;5011539;28;20030;-57
2023/09/26 01:49:55;;;;;;;21.92;8.20;;;21.40;67.50;;;;;;5013486;28;20029;-57
2023/09/26 01:52:20;;;;;;;21.90;8.23;;;21.40;67.60;;;;;;5013305;28;20083;-57
2023/09/26 01:54:46;;;;;;;19.25;7.38;;;21.40;67.80;;;;;;4995483;28;20128;-55
2023/09/26 01:57:12;;;;;;;19.15;7.85;;;21.40;67.80;;;;;;5013299;28;20400;-56
2023/09/26 01:59:38;;;;;;;21.60;7.82;;;21.40;67.80;;;;;;5013141;28;20034;-57
2023/09/26 02:02:04;;;;;;;20.70;7.53;;;21.40;67.60;;;;;;4995892;28;20034;-56
2023/09/26 02:04:30;;;;;;;18.70;6.93;;;21.40;67.80;;;;;;5012687;28;20083;-56
2023/09/26 02:06:57;;;;;;;21.42;7.57;;;21.40;67.70;;;;;;5011796;28;20481;-56
2023/09/26 02:09:24;;;;;;;21.23;7.03;;;21.40;67.60;;;;;;5013252;28;20058;-57
2023/09/26 02:11:50;;;;;;;23.52;8.25;;;21.40;67.60;;;;;;5012935;28;20512;-57
2023/09/26 02:14:16;;;;;;;18.95;7.03;;;21.40;67.80;;;;;;4996547;28;20064;-57
2023/09/26 02:16:42;;;;;;;20.45;7.05;;;21.40;67.80;;;;;;5013760;28;20378;-57
2023/09/26 02:19:09;;;;;;;19.65;7.22;;;21.40;67.60;;;;;;5011691;28;20428;-57
2023/09/26 02:21:35;;;;;;;21.33;7.90;;;21.40;67.60;;;;;;4995309;28;20033;-57
2023/09/26 02:24:02;;;;;;;17.40;7.10;;;21.40;67.80;;;;;;4994831;28;20594;-57
2023/09/26 02:26:28;;;;;;;17.40;7.20;;;21.40;67.70;;;;;;4995099;28;20045;-57
2023/09/26 02:28:53;;;;;;;20.67;7.43;;;21.40;67.80;;;;;;4996670;28;20021;-57
2023/09/26 02:31:19;;;;;;;17.42;6.80;;;21.40;67.80;;;;;;5016001;28;20017;-57
2023/09/26 02:33:45;;;;;;;17.77;6.97;;;21.40;67.60;;;;;;5012443;28;20034;-53
2023/09/26 02:36:12;;;;;;;17.10;6.90;;;21.40;68.30;;;;;;5012498;28;20060;-55
2023/09/26 02:38:37;;;;;;;14.68;6.47;;;21.40;67.60;;;;;;5012517;28;20034;-56
2023/09/26 02:41:04;;;;;;;14.80;6.43;;;21.40;67.80;;;;;;4994911;28;20034;-54
2023/09/26 02:43:30;;;;;;;14.80;6.57;;;21.40;67.70;;;;;;4994575;28;20044;-56
2023/09/26 02:45:55;;;;;;;17.13;6.85;;;21.40;67.50;;;;;;5012278;28;20172;-52
2023/09/26 02:48:21;;;;;;;15.60;6.30;;;21.40;67.70;;;;;;5012198;28;20022;-55
2023/09/26 02:50:47;;;;;;;16.10;6.57;;;21.30;67.70;;;;;;5012242;28;20026;-55
2023/09/26 02:53:13;;;;;;;14.63;6.13;;;21.40;67.70;;;;;;4994398;28;20025;-56
2023/09/26 02:55:40;;;;;;;16.63;6.30;;;21.30;67.60;;;;;;4994678;28;20030;-52
2023/09/26 02:58:06;;;;;;;14.18;6.03;;;21.30;67.60;;;;;;5010968;28;20510;-52
2023/09/26 03:00:32;;;;;;;15.88;6.40;;;21.30;67.60;;;;;;5012071;28;20026;-54
2023/09/26 03:02:58;;;;;;;14.98;6.13;;;21.30;67.70;;;;;;5011780;28;20120;-56
2023/09/26 03:05:25;;;;;;;12.68;6.00;;;21.30;67.70;;;;;;4994401;28;20033;-56
2023/09/26 03:07:51;;;;;;;12.75;5.63;;;21.40;67.50;;;;;;4994525;28;20033;-53
2023/09/26 03:10:17;;;;;;;14.18;5.82;;;21.30;67.50;;;;;;5011968;28;20022;-54
2023/09/26 03:12:46;;;;;;;16.08;5.50;;;21.40;67.30;;;;;;5011735;28;20120;-55
2023/09/26 03:15:12;;;;;;;12.30;5.63;;;21.40;67.30;;;;;;5012301;28;20033;-55
2023/09/26 03:17:38;;;;;;;11.82;5.22;;;21.40;67.90;;;;;;5010874;28;20022;-55
2023/09/26 03:20:06;;;;;;;14.80;5.57;;;21.40;67.30;;;;;;5011925;28;20092;-54
2023/09/26 03:22:32;;;;;;;15.60;5.40;;;21.40;67.10;;;;;;4994276;28;20025;-56
2023/09/26 03:24:58;;;;;;;12.60;5.70;;;21.40;67.30;;;;;;4993979;28;20097;-56
2023/09/26 03:27:24;;;;;;;12.77;5.47;;;21.40;67.30;;;;;;5011605;28;20106;-56
2023/09/26 03:29:51;;;;;;;10.82;4.85;;;21.40;67.40;;;;;;4994191;28;20492;-50
2023/09/26 03:32:17;;;;;;;12.30;5.10;;;21.40;67.20;;;;;;5010503;28;20126;-54
2023/09/26 03:34:43;;;;;;;12.32;4.95;;;21.40;67.20;;;;;;5011307;28;20041;-53
2023/09/26 03:37:09;;;;;;;9.88;4.93;;;21.40;67.30;;;;;;5011576;28;20038;-51
2023/09/26 03:39:35;;;;;;;9.13;5.00;;;21.30;67.30;;;;;;5013235;28;20152;-53
2023/09/26 03:42:01;;;;;;;15.73;5.55;;;21.40;67.30;;;;;;5015726;28;20490;-56
2023/09/26 03:44:27;;;;;;;15.05;5.78;;;21.40;67.30;;;;;;5015266;28;20030;-55
2023/09/26 03:46:52;;;;;;;10.32;4.78;;;21.30;67.30;;;;;;5014472;28;20030;-53
2023/09/26 03:49:18;;;;;;;9.75;5.20;;;21.30;67.20;;;;;;5015586;28;20096;-54
2023/09/26 03:51:44;;;;;;;10.68;4.68;;;21.30;67.30;;;;;;4998130;28;20370;-56
2023/09/26 03:54:10;;;;;;;12.00;5.72;;;21.40;67.40;;;;;;5015204;28;20029;-56
2023/09/26 03:56:35;;;;;;;16.52;8.43;;;21.40;67.10;;;;;;5015329;28;20038;-49
2023/09/26 03:59:01;;;;;;;18.10;9.93;;;21.30;67.70;;;;;;5014314;28;20030;-55
2023/09/26 04:01:27;;;;;;;16.27;9.60;;;21.20;67.30;;;;;;5015449;28;20030;-54
2023/09/26 04:03:53;;;;;;;19.13;9.45;;;21.10;67.30;;;;;;5014961;28;20026;-54
2023/09/26 04:06:19;;;;;;;14.18;8.75;;;21.00;67.10;;;;;;5015211;28;20038;-50
2023/09/26 04:08:45;;;;;;;15.88;8.82;;;21.00;67.30;;;;;;5015304;28;20030;-55
2023/09/26 04:11:15;;;;;;;16.80;7.95;;;21.00;67.10;;;;;;5015310;28;20072;-57
2023/09/26 04:13:41;;;;;;;;;;;21.00;67.10;;;;;;5015187;28;20080;-57
2023/09/26 04:16:08;;;;;;;13.05;7.95;;;20.90;67.00;;;;;;4997731;28;19959;-57
2023/09/26 04:18:34;;;;;;;12.00;7.55;;;20.90;67.10;;;;;;5015179;28;20510;-57
2023/09/26 04:21:04;;;;;;;13.23;8.07;;;20.80;67.10;;;;;;5015166;28;20105;-57
2023/09/26 04:23:30;;;;;;;15.52;8.77;;;20.80;67.10;;;;;;5014696;28;20490;-55
2023/09/26 04:25:56;;;;;;;15.45;9.00;;;20.80;67.20;;;;;;4997286;28;20033;-57
2023/09/26 04:28:22;;;;;;;15.77;9.80;;;20.80;67.30;;;;;;5014905;28;20029;-57
2023/09/26 04:30:48;;;;;;;14.57;10.45;;;20.80;67.30;;;;;;5014840;28;20481;-55
2023/09/26 04:33:16;;;;;;;19.58;10.50;;;20.80;67.20;;;;;;5013318;28;20030;-55
2023/09/26 04:35:42;;;;;;;16.45;8.88;;;20.70;67.20;;;;;;5014641;28;20034;-57
2023/09/26 04:38:08;;;;;;;18.02;9.30;;;20.70;67.50;;;;;;5014712;28;20030;-57
2023/09/26 04:40:34;;;;;;;15.63;9.23;;;20.70;67.50;;;;;;5014706;28;20497;-56
2023/09/26 04:43:05;;;;;;;15.30;9.57;;;20.70;67.40;;;;;;4996783;28;20485;-55
2023/09/26 04:45:31;;;;;;;20.80;10.38;;;20.60;67.30;;;;;;5014519;28;20022;-55
2023/09/26 04:47:59;;;;;;;16.65;10.90;;;20.60;67.50;;;;;;5014797;28;20021;-56
2023/09/26 04:50:26;;;;;;;16.95;11.10;;;20.60;67.50;;;;;;5014558;28;20018;-55
2023/09/26 04:52:52;;;;;;;16.73;10.25;;;20.60;67.50;;;;;;4996265;28;20073;-57
2023/09/26 04:55:18;;;;;;;15.57;9.57;;;20.50;67.60;;;;;;5014236;28;20482;-57
2023/09/26 04:57:44;;;;;;;19.23;9.10;;;20.50;67.50;;;;;;5014307;28;20034;-55
2023/09/26 05:00:10;;;;;;;14.52;9.20;;;20.50;67.50;;;;;;5014463;28;20033;-55
2023/09/26 05:02:36;;;;;;;15.63;9.88;;;20.50;67.60;;;;;;5014368;28;20079;-51
2023/09/26 05:05:03;;;;;;;14.25;9.10;;;20.50;67.60;;;;;;5014381;28;20428;-57
2023/09/26 05:07:30;;;;;;;16.17;9.75;;;20.50;67.50;;;;;;4996616;28;20110;-60
2023/09/26 05:09:57;;;;;;;15.00;9.10;;;20.40;67.50;;;;;;5014003;28;20060;-57
2023/09/26 05:12:22;;;;;;;15.10;9.02;;;20.40;67.60;;;;;;5014106;28;20030;-57
2023/09/26 05:14:48;;;;;;;15.27;10.20;;;20.40;67.60;;;;;;5013787;28;20041;-57
2023/09/26 05:17:14;;;;;;;15.95;10.60;;;20.40;67.60;;;;;;5014169;28;20124;-57
2023/09/26 05:19:40;;;;;;;19.98;11.43;;;20.40;67.60;;;;;;5013854;28;20493;-57
2023/09/26 05:22:05;;;;;;;23.98;11.82;;;20.40;67.60;;;;;;5013914;28;20033;-56
2023/09/26 05:24:31;;;;;;;19.15;12.25;;;20.40;67.60;;;;;;5013457;28;20026;-56
2023/09/26 05:26:57;;;;;;;20.33;11.15;;;20.40;67.70;;;;;;4996094;28;20075;-57
2023/09/26 05:29:23;;;;;;;18.10;11.90;;;20.40;67.60;;;;;;5013787;28;20026;-57
2023/09/26 05:31:49;;;;;;;22.08;12.02;;;20.40;67.60;;;;;;5013620;28;20048;-57
2023/09/26 05:34:14;;;;;;;15.68;10.48;;;20.40;67.50;;;;;;5013342;28;20030;-57
2023/09/26 05:36:40;;;;;;;17.30;9.93;;;20.30;67.60;;;;;;5013379;28;20037;-57
2023/09/26 05:39:07;;;;;;;14.88;9.15;;;20.30;67.50;;;;;;5013370;28;20030;-56
2023/09/26 05:41:33;;;;;;;16.40;8.73;;;20.30;67.70;;;;;;5013488;28;20058;-59
2023/09/26 05:43:58;;;;;;;14.57;8.65;;;20.30;67.70;;;;;;5013173;28;20152;-57
2023/09/26 05:46:24;;;;;;;17.52;8.88;;;20.30;67.70;;;;;;5013342;28;20026;-57
2023/09/26 05:48:50;;;;;;;17.73;8.68;;;20.30;67.70;;;;;;5013385;28;20033;-57
2023/09/26 05:51:16;;;;;;;16.02;8.68;;;20.30;67.90;;;;;;5013246;28;20029;-53
2023/09/26 05:53:42;;;;;;;15.23;9.52;;;20.30;67.80;;;;;;5012862;28;20083;-54
2023/09/26 05:56:07;;;;;;;17.90;9.65;;;20.20;67.80;;;;;;4995833;28;20029;-58
2023/09/26 05:58:33;;;;;;;18.40;10.52;;;20.30;67.90;;;;;;5013271;28;20427;-58
2023/09/26 06:01:07;;;;;;;20.15;12.07;;;20.30;67.90;;;;;;5013103;28;20029;-58
2023/09/26 06:03:33;;;;;;;21.25;11.98;;;20.30;67.90;;;;;;5011915;28;20417;-58
2023/09/26 06:06:03;;;;;;;19.77;11.43;;;20.30;67.90;;;;;;5012975;28;20033;-56
2023/09/26 06:08:29;;;;;;;21.95;11.45;;;20.30;68.50;;;;;;5012973;28;20025;-57
2023/09/26 06:10:54;;;;;;;22.73;12.38;;;20.30;67.90;;;;;;5012919;28;20029;-58
2023/09/26 06:13:21;;;;;;;17.30;11.27;;;20.30;67.90;;;;;;5012629;28;20100;-58
2023/09/26 06:15:46;;;;;;;17.35;11.98;;;20.30;67.90;;;;;;4995392;28;20033;-57
2023/09/26 06:18:12;;;;;;;19.27;11.93;;;20.30;68.00;;;;;;5012907;28;20108;-57
2023/09/26 06:20:40;;;;;;;19.65;11.15;;;20.30;67.90;;;;;;5012787;28;20105;-57
2023/09/26 06:23:06;;;;;;;15.88;10.52;;;20.30;68.00;;;;;;5011172;28;20033;-56
2023/09/26 06:25:32;;;;;;;21.25;10.88;;;20.30;68.00;;;;;;5012861;28;20026;-50
2023/09/26 06:27:57;;;;;;;14.90;9.60;;;20.30;68.10;;;;;;5014994;28;20022;-56
2023/09/26 06:30:23;;;;;;;15.88;10.05;;;20.30;68.20;;;;;;5016874;28;20081;-50
2023/09/26 06:32:49;;;;;;;15.85;9.90;;;20.30;68.20;;;;;;5016927;28;20018;-52
2023/09/26 06:35:15;;;;;;;16.90;10.98;;;20.30;68.90;;;;;;5013252;28;20029;-58
2023/09/26 06:37:41;;;;;;;17.33;11.35;;;20.30;68.40;;;;;;5012550;28;20041;-58
2023/09/26 06:40:07;;;;;;;20.02;10.60;;;20.30;68.40;;;;;;5012435;28;20472;-54
2023/09/26 06:42:33;;;;;;;16.38;9.98;;;20.30;68.40;;;;;;5011134;28;20026;-58
2023/09/26 06:44:59;;;;;;;18.65;10.00;;;20.30;68.50;;;;;;5012293;28;20032;-58
2023/09/26 06:47:26;;;;;;;21.13;9.70;;;20.30;68.60;;;;;;5012508;28;20378;-55
2023/09/26 06:49:53;;;;;;;16.13;10.32;;;20.30;68.60;;;;;;5012217;28;20022;-57
2023/09/26 06:52:20;;;;;;;19.33;9.43;;;20.30;68.60;;;;;;5011905;28;20022;-57
2023/09/26 06:54:45;;;;;;;18.33;10.25;;;20.40;68.70;;;;;;5001369;28;20030;-56
2023/09/26 06:57:15;;;;;;;18.05;9.65;;;20.40;68.70;;;;;;4997227;28;20038;-55
2023/09/26 06:59:41;;;;;;;;;;;20.40;68.60;;;;;;5007049;28;20065;-55
2023/09/26 07:02:08;;;;;;;25.88;11.93;;;20.40;69.60;;;;;;5007004;28;19913;-58
2023/09/26 07:04:34;;;;;;;18.55;11.95;;;20.40;69.00;;;;;;5001096;28;20512;-57
2023/09/26 07:07:00;;;;;;;18.60;10.90;;;20.50;68.90;;;;;;5008622;28;20025;-55
2023/09/26 07:09:26;;;;;;;18.83;10.57;;;20.50;69.00;;;;;;5008738;28;20025;-57
2023/09/26 07:11:52;;;;;;;17.42;10.82;;;20.50;69.10;;;;;;5009059;28;20068;-58
2023/09/26 07:14:18;;;;;;;16.88;10.95;;;20.50;69.20;;;;;;5008106;28;20073;-58
2023/09/26 07:16:46;;;;;;;22.73;11.85;;;20.50;69.70;;;;;;5008131;28;20025;-54
2023/09/26 07:19:13;;;;;;;23.70;12.23;;;20.50;69.10;;;;;;5006699;28;20076;-53
2023/09/26 07:21:39;;;;;;;22.02;11.43;;;20.50;69.00;;;;;;5008664;28;20026;-52
2023/09/26 07:24:05;;;;;;;20.95;10.55;;;20.60;69.10;;;;;;5007888;28;20044;-55
2023/09/26 07:26:32;;;;;;;19.02;9.50;;;20.60;68.90;;;;;;5009107;28;20058;-53
2023/09/26 07:28:58;;;;;;;20.98;10.50;;;20.60;68.80;;;;;;5008638;28;20022;-50
2023/09/26 07:31:23;;;;;;;25.27;10.23;;;20.70;69.50;;;;;;5008892;28;20033;-53
2023/09/26 07:33:50;;;;;;;18.42;10.25;;;20.80;69.30;;;;;;5008374;28;20025;-55
2023/09/26 07:36:17;;;;;;;16.55;10.32;;;20.90;68.80;;;;;;5022687;22;20057;-55
2023/09/26 07:38:44;;;;;;;18.25;10.63;;;20.90;69.10;;;;;;5028907;28;20054;-54
2023/09/26 07:41:10;;;;;;;19.00;10.48;;;20.90;69.40;;;;;;5029423;28;20025;-55
2023/09/26 07:43:35;;;;;;;20.23;10.60;;;21.00;70.50;;;;;;5028466;28;20040;-52
2023/09/26 07:46:10;;;;;;;26.73;11.13;;;21.00;70.00;;;;;;5008613;28;20023;-53
2023/09/26 07:48:37;;;;;;;33.95;12.25;;;21.10;71.30;;;;;;5012093;28;20152;-53
2023/09/26 07:51:05;;;;;;;23.20;11.82;;;21.10;71.00;;;;;;5009398;28;20018;-54
2023/09/26 07:53:31;;;;;;;22.17;10.20;;;21.20;70.70;;;;;;5009163;28;20029;-57
2023/09/26 07:55:57;;;;;;;18.40;10.50;;;21.20;70.40;;;;;;4993218;28;20089;-50
2023/09/26 07:58:23;;;;;;;20.70;10.55;;;21.20;70.20;;;;;;5001264;28;20030;-52
2023/09/26 08:00:49;;;;;;;17.98;9.80;;;21.20;70.30;;;;;;4994191;28;20034;-51
2023/09/26 08:03:15;;;;;;;18.67;9.57;;;21.20;70.00;;;;;;4989490;28;20042;-57
2023/09/26 08:05:41;;;;;;;25.23;10.02;;;21.20;70.10;;;;;;5007277;28;20037;-55
2023/09/26 08:08:07;;;;;;;20.02;9.73;;;21.20;70.20;;;;;;5009390;28;20501;-55
2023/09/26 08:10:37;;;;;;;20.65;10.43;;;21.20;70.30;;;;;;5000711;28;20022;-54
2023/09/26 08:13:03;;;;;;;23.85;10.40;;;21.20;70.30;;;;;;5009118;28;20033;-54
2023/09/26 08:15:31;;;;;;;18.73;9.60;;;21.20;70.40;;;;;;4997159;28;20030;-57
2023/09/26 08:17:58;;;;;;;17.52;9.13;;;21.30;70.40;;;;;;4989582;28;20030;-58
2023/09/26 08:20:26;;;;;;;17.73;9.18;;;21.20;70.50;;;;;;5007808;28;20029;-56
2023/09/26 08:22:52;;;;;;;15.55;9.05;;;21.30;70.60;;;;;;5000559;28;20432;-57
2023/09/26 08:25:18;;;;;;;21.80;8.80;;;21.30;70.30;;;;;;5000897;28;20168;-58
2023/09/26 08:27:44;;;;;;;16.15;9.07;;;21.30;70.40;;;;;;5008038;28;20493;-58
2023/09/26 08:30:11;;;;;;;16.92;8.30;;;21.30;70.20;;;;;;5001953;28;20046;-57
2023/09/26 08:32:38;;;;;;;21.08;9.68;;;21.30;70.30;;;;;;4991964;28;20101;-53
2023/09/26 08:35:06;;;;;;;15.27;9.13;;;21.30;70.10;;;;;;5007748;28;20033;-52
2023/09/26 08:37:33;;;;;;;20.02;9.05;;;21.30;70.10;;;;;;5011477;28;20033;-56
2023/09/26 08:39:59;;;;;;;17.70;9.85;;;21.30;70.10;;;;;;5011474;28;20026;-55
2023/09/26 08:42:27;;;;;;;18.30;8.52;;;21.40;70.10;;;;;;4999663;28;20030;-56
2023/09/26 08:44:58;;;;;;;13.98;8.52;;;21.40;70.10;;;;;;5005593;28;20030;-57
2023/09/26 08:47:24;;;;;;;18.15;8.77;;;21.40;70.00;;;;;;5012414;28;20585;-57
2023/09/26 08:49:54;;;;;;;14.13;8.18;;;21.40;69.90;;;;;;5010659;28;20018;-57
2023/09/26 08:52:24;;;;;;;16.50;9.32;;;21.40;69.80;;;;;;5011444;28;20050;-55
2023/09/26 08:54:50;;;;;;;17.10;9.00;;;21.40;70.40;;;;;;5003738;28;20409;-56
2023/09/26 08:57:19;;;;;;;14.38;8.43;;;21.40;69.70;;;;;;4992030;28;20038;-53
2023/09/26 08:59:46;;;;;;;;;;;21.40;69.80;;;;;;5001215;28;20432;-55
2023/09/26 09:02:12;;;;;;;20.63;9.20;;;21.50;69.90;;;;;;5011773;28;19936;-55
2023/09/26 09:04:45;;;;;;;17.58;8.27;;;21.50;69.80;;;;;;5006346;28;20023;-56
2023/09/26 09:07:14;;;;;;;17.38;8.70;;;21.50;69.80;;;;;;4992063;28;20062;-52
2023/09/26 09:10:00;;;;;;;;;;;21.50;69.80;;;;;;4999800;28;20054;-56
2023/09/26 09:12:26;;;;;;;14.30;8.10;;;21.50;70.30;;;;;;5011579;28;19913;-56
2023/09/26 09:14:52;;;;;;;15.98;8.00;;;21.50;69.60;;;;;;5004236;28;20085;-55
2023/09/26 09:17:17;;;;;;;13.20;7.97;;;21.50;69.70;;;;;;4992335;28;20026;-55
2023/09/26 09:19:49;;;;;;;13.93;8.35;;;21.50;69.60;;;;;;4998943;28;20100;-57
2023/09/26 09:22:17;;;;;;;14.52;8.20;;;21.50;69.50;;;;;;5010173;28;20273;-57
2023/09/26 09:24:43;;;;;;;16.88;8.05;;;21.50;69.40;;;;;;5005125;28;20038;-54
2023/09/26 09:27:09;;;;;;;13.90;8.50;;;21.50;69.40;;;;;;4992109;28;20072;-57
2023/09/26 09:29:35;;;;;;;20.90;8.43;;;21.40;69.40;;;;;;4997078;28;20025;-59
2023/09/26 09:32:01;;;;;;;20.35;8.38;;;21.50;69.60;;;;;;5011391;28;20072;-58
2023/09/26 09:34:27;;;;;;;13.20;7.22;;;21.40;69.60;;;;;;5011220;28;20029;-58
2023/09/26 09:36:59;;;;;;;12.85;7.93;;;21.40;69.40;;;;;;4995728;28;20038;-58
2023/09/26 09:39:24;;;;;;;11.82;7.47;;;21.40;69.40;;;;;;5003932;28;20101;-56
2023/09/26 09:41:57;;;;;;;19.30;8.05;;;21.30;69.40;;;;;;5011206;28;20465;-55
2023/09/26 09:44:23;;;;;;;20.15;8.02;;;21.30;69.60;;;;;;4999345;28;20026;-55
2023/09/26 09:47:01;;;;;;;18.45;8.10;;;21.30;69.90;;;;;;4991636;28;20505;-56
2023/09/26 09:49:32;;;;;;;17.92;7.38;;;21.30;69.90;;;;;;4997592;28;20022;-54
2023/09/26 09:52:03;;;;;;;15.98;7.43;;;21.30;70.10;;;;;;5000126;28;20062;-55
2023/09/26 09:54:33;;;;;;;15.82;6.53;;;21.30;70.10;;;;;;4998922;28;20434;-56
2023/09/26 09:57:04;;;;;;;14.63;6.38;;;21.30;70.10;;;;;;4994584;28;20026;-54
2023/09/26 09:59:35;;;;;;;14.60;7.10;;;21.40;70.10;;;;;;4998516;28;20493;-52
2023/09/26 10:02:03;;;;;;;14.30;7.38;;;21.30;70.10;;;;;;4991600;28;20413;-55
2023/09/26 10:04:31;;;;;;;15.75;7.47;;;21.40;70.10;;;;;;5002195;28;20105;-55
2023/09/26 10:06:59;;;;;;;13.57;6.82;;;21.40;69.90;;;;;;5009977;28;20049;-56
2023/09/26 10:09:25;;;;;;;18.23;6.90;;;21.40;69.90;;;;;;5009575;28;20014;-57
2023/09/26 10:11:53;;;;;;;12.90;7.22;;;21.40;69.90;;;;;;5010766;28;20149;-56
2023/09/26 10:14:23;;;;;;;12.52;6.65;;;21.40;69.90;;;;;;5010404;28;20057;-57
2023/09/26 10:16:50;;;;;;;11.75;6.60;;;21.50;69.90;;;;;;5010703;28;20057;-55
2023/09/26 10:19:16;;;;;;;11.65;6.43;;;21.50;69.70;;;;;;5010631;28;20021;-57
2023/09/26 10:21:42;;;;;;;15.45;6.88;;;21.50;69.60;;;;;;5010095;28;20030;-57
2023/09/26 10:24:08;;;;;;;16.02;7.60;;;21.50;69.60;;;;;;5009934;28;20080;-53
2023/09/26 10:26:37;;;;;;;13.48;7.00;;;21.50;69.50;;;;;;5010517;28;20556;-57
2023/09/26 10:29:22;;;;;;;14.25;7.43;;;21.60;69.50;;;;;;5008485;28;20037;-52
2023/09/26 10:31:57;;;;;;;11.98;6.53;;;21.60;69.50;;;;;;4990790;28;20026;-54
2023/09/26 10:34:44;;;;;;;12.38;6.70;;;21.50;69.50;;;;;;4990572;28;20022;-54
2023/09/26 10:37:15;;;;;;;16.45;6.88;;;21.50;69.60;;;;;;4990614;28;20074;-55
2023/09/26 10:39:43;;;;;;;16.38;6.57;;;21.50;69.40;;;;;;4990783;28;20455;-56
2023/09/26 10:42:16;;;;;;;10.25;6.28;;;21.50;69.50;;;;;;4990846;28;20442;-56
2023/09/26 10:44:46;;;;;;;11.02;6.22;;;21.50;69.70;;;;;;4990504;28;20019;-56
2023/09/26 10:47:12;;;;;;;9.45;5.75;;;21.50;69.80;;;;;;4990292;28;20452;-55
2023/09/26 10:49:39;;;;;;;9.32;6.50;;;21.50;69.80;;;;;;4990051;28;20037;-57
2023/09/26 10:52:08;;;;;;;11.38;7.22;;;21.50;69.70;;;;;;4990454;28;20023;-57
2023/09/26 10:54:37;;;;;;;12.30;6.95;;;21.50;69.70;;;;;;4990098;28;20037;-58
2023/09/26 10:57:04;;;;;;;12.75;6.43;;;21.40;69.60;;;;;;4990525;28;20032;-55
2023/09/26 10:59:31;;;;;;;10.90;7.25;;;21.50;69.60;;;;;;4990112;28;20031;-57
2023/09/26 11:01:58;;;;;;;11.07;5.85;;;21.50;69.50;;;;;;4990406;28;20034;-56
2023/09/26 11:04:28;;;;;;;14.50;5.95;;;21.50;69.40;;;;;;4989919;28;20037;-51
2023/09/26 11:06:56;;;;;;;12.52;6.45;;;21.50;69.40;;;;;;4990335;28;20031;-53
2023/09/26 11:09:22;;;;;;;14.07;7.03;;;21.50;69.40;;;;;;4990331;28;20026;-53
2023/09/26 11:11:48;;;;;;;13.75;6.90;;;21.50;69.30;;;;;;4990310;28;20490;-55
2023/09/26 11:14:15;;;;;;;11.48;6.45;;;21.50;69.30;;;;;;4989790;28;20038;-57
2023/09/26 11:16:41;;;;;;;11.88;6.15;;;21.60;69.20;;;;;;5003434;28;20030;-55
2023/09/26 11:19:11;;;;;;;12.30;6.43;;;21.60;69.30;;;;;;5009732;28;20486;-51
2023/09/26 11:21:37;;;;;;;9.65;6.43;;;21.60;69.10;;;;;;5006198;28;20543;-55
2023/09/26 11:24:25;;;;;;;17.20;7.15;;;21.60;69.00;;;;;;5000252;28;20034;-54
2023/09/26 11:26:53;;;;;;;11.38;6.20;;;21.60;69.00;;;;;;5009330;28;20030;-56
2023/09/26 11:29:20;;;;;;;8.93;6.28;;;21.60;69.00;;;;;;5009665;28;20409;-54
2023/09/26 11:31:47;;;;;;;12.15;6.80;;;21.60;68.90;;;;;;5008388;28;20045;-57
2023/09/26 11:34:16;;;;;;;11.50;6.97;;;21.70;69.00;;;;;;5009278;28;20033;-53
2023/09/26 11:36:43;;;;;;;13.35;6.55;;;21.60;68.90;;;;;;5024655;28;20596;-55
2023/09/26 11:39:17;;;;;;;15.88;6.63;;;21.70;69.10;;;;;;5009355;28;20064;-57
2023/09/26 11:41:43;;;;;;;11.73;6.63;;;21.70;68.90;;;;;;5009547;28;20026;-55
2023/09/26 11:44:10;;;;;;;10.38;6.15;;;21.60;69.00;;;;;;5009404;28;20026;-53
2023/09/26 11:46:44;;;;;;;11.60;6.75;;;21.60;69.10;;;;;;5009489;28;20025;-56
2023/09/26 11:49:12;;;;;;;14.25;7.80;;;21.60;69.10;;;;;;5009524;28;20022;-54
2023/09/26 11:51:38;;;;;;;14.50;7.72;;;21.70;69.20;;;;;;5009365;28;20029;-53
2023/09/26 11:54:08;;;;;;;10.95;7.25;;;21.70;69.30;;;;;;5009167;28;20034;-57
2023/09/26 11:56:35;;;;;;;12.05;6.90;;;21.60;69.30;;;;;;5008067;28;20026;-57
2023/09/26 11:59:03;;;;;;;14.13;6.97;;;21.60;69.40;;;;;;5009365;28;20222;-56
2023/09/26 12:01:30;;;;;;;11.85;7.57;;;21.70;69.30;;;;;;5012651;28;20029;-57
2023/09/26 12:03:56;;;;;;;12.88;6.57;;;21.70;69.30;;;;;;5012915;28;20037;-56
2023/09/26 12:06:22;;;;;;;11.95;6.78;;;21.70;69.40;;;;;;5013030;28;20029;-57
2023/09/26 12:08:48;;;;;;;16.77;6.88;;;21.70;69.30;;;;;;5011939;28;20397;-55
2023/09/26 12:11:14;;;;;;;11.00;6.57;;;21.60;69.30;;;;;;5013172;28;20576;-52
2023/09/26 12:13:40;;;;;;;13.82;7.03;;;21.70;69.40;;;;;;5012754;28;20022;-57
2023/09/26 12:16:05;;;;;;;16.30;7.40;;;21.70;69.40;;;;;;5012830;28;20521;-54
2023/09/26 12:18:31;;;;;;;15.38;7.68;;;21.60;69.40;;;;;;5013016;28;20034;-56
2023/09/26 12:20:58;;;;;;;13.05;8.20;;;21.60;69.30;;;;;;5012345;28;20080;-54
2023/09/26 12:23:26;;;;;;;13.38;7.72;;;21.60;69.40;;;;;;5024517;28;20490;-55
2023/09/26 12:25:52;;;;;;;14.07;7.15;;;21.60;69.50;;;;;;4992453;28;20034;-54
2023/09/26 12:28:18;;;;;;;14.65;7.78;;;21.60;69.70;;;;;;4989921;28;20026;-57
2023/09/26 12:30:45;;;;;;;18.77;7.65;;;21.60;69.60;;;;;;4990859;28;20029;-55
2023/09/26 12:33:11;;;;;;;16.75;8.10;;;21.60;69.60;;;;;;4989948;28;20047;-52
2023/09/26 12:35:36;;;;;;;19.95;8.20;;;21.60;69.60;;;;;;4990515;28;20037;-57